createdAt,value
2023-03-27T00:00:31.366Z,1.9286
2023-03-27T00:01:38.314Z,1.5071
2023-03-27T00:02:45.358Z,1.7071
2023-03-27T00:03:52.406Z,1.5214
2023-03-27T00:04:59.314Z,2.2786
2023-03-27T00:06:06.291Z,2.0071
2023-03-27T00:07:13.289Z,2.4571
2023-03-27T00:08:20.246Z,2.2714
2023-03-27T00:09:29.231Z,1.6571
2023-03-27T00:10:39.002Z,1.6200
2023-03-27T00:11:46.013Z,1.7000
2023-03-27T00:12:52.998Z,1.4643
2023-03-27T00:14:00.020Z,2.3929
2023-03-27T00:15:06.982Z,1.7643
2023-03-27T00:16:13.984Z,1.4571
2023-03-27T00:17:20.951Z,1.7286
2023-03-27T00:18:27.956Z,2.3214
2023-03-27T00:19:34.916Z,1.6357
2023-03-27T00:20:41.918Z,2.3643
2023-03-27T00:21:48.904Z,2.4143
2023-03-27T00:22:55.894Z,2.0714
2023-03-27T00:24:02.862Z,2.1071
2023-03-27T00:25:09.877Z,2.9571
2023-03-27T00:26:16.849Z,1.9571
2023-03-27T00:27:23.830Z,1.9714
2023-03-27T00:28:30.794Z,2.1643
2023-03-27T00:29:37.818Z,2.5000
2023-03-27T00:30:44.817Z,1.8286
2023-03-27T00:31:51.774Z,2.4714
2023-03-27T00:32:58.743Z,2.1000
2023-03-27T00:34:05.748Z,2.2786
2023-03-27T00:35:12.723Z,1.8857
2023-03-27T00:36:19.733Z,2.4643
2023-03-27T00:37:26.688Z,2.3786
2023-03-27T00:38:33.703Z,1.7643
2023-03-27T00:39:40.675Z,1.5500
2023-03-27T00:40:47.705Z,2.1000
2023-03-27T00:41:54.649Z,2.2214
2023-03-27T00:43:01.634Z,2.2643
2023-03-27T00:44:08.623Z,1.9786
2023-03-27T00:45:15.629Z,2.2786
2023-03-27T00:46:22.605Z,1.7214
2023-03-27T00:47:29.664Z,2.7286
2023-03-27T00:48:36.541Z,1.5214
2023-03-27T00:49:43.559Z,1.3143
2023-03-27T00:50:50.525Z,1.9929
2023-03-27T00:51:57.573Z,1.6929
2023-03-27T00:53:04.501Z,1.8000
2023-03-27T00:54:11.506Z,2.3357
2023-03-27T00:55:18.488Z,2.8857
2023-03-27T00:56:25.481Z,3.1143
2023-03-27T00:57:32.454Z,2.6857
2023-03-27T00:58:39.470Z,2.4429
2023-03-27T00:59:46.426Z,1.8357
2023-03-27T01:00:53.476Z,2.5214
2023-03-27T01:02:00.423Z,1.8500
2023-03-27T01:03:07.492Z,2.4357
2023-03-27T01:04:14.376Z,2.1286
2023-03-27T01:05:21.361Z,2.4786
2023-03-27T01:06:28.332Z,1.6643
2023-03-27T01:07:35.341Z,2.3714
2023-03-27T01:08:42.303Z,1.7786
2023-03-27T01:09:49.326Z,1.3214
2023-03-27T01:10:56.377Z,1.5143
2023-03-27T01:12:03.279Z,2.0857
2023-03-27T01:13:10.227Z,1.9429
2023-03-27T01:14:17.261Z,2.5357
2023-03-27T01:15:24.190Z,1.5643
2023-03-27T01:16:31.200Z,1.0857
2023-03-27T01:17:38.201Z,1.7286
2023-03-27T01:18:45.187Z,1.1929
2023-03-27T01:19:52.150Z,1.7643
2023-03-27T01:20:59.951Z,1.8071
2023-03-27T01:22:06.102Z,1.3643
2023-03-27T01:23:13.130Z,1.1857
2023-03-27T01:24:20.095Z,2.0143
2023-03-27T01:25:27.095Z,1.1429
2023-03-27T01:26:35.473Z,2.1643
2023-03-27T01:27:45.832Z,1.7200
2023-03-27T01:28:52.853Z,2.4000
2023-03-27T01:29:59.924Z,2.4929
2023-03-27T01:31:06.880Z,1.7071
2023-03-27T01:32:13.862Z,1.7357
2023-03-27T01:33:20.814Z,1.5714
2023-03-27T01:34:27.840Z,2.2571
2023-03-27T01:35:34.832Z,1.8714
2023-03-27T01:36:41.837Z,1.3286
2023-03-27T01:37:48.773Z,1.3929
2023-03-27T01:38:55.772Z,2.3143
2023-03-27T01:40:02.742Z,2.1786
2023-03-27T01:41:09.763Z,1.3571
2023-03-27T01:42:16.729Z,1.7357
2023-03-27T01:43:23.731Z,2.9429
2023-03-27T01:44:36.519Z,2.6857
2023-03-27T01:45:42.472Z,1.4600
2023-03-27T01:46:49.445Z,1.5000
2023-03-27T01:47:56.520Z,1.1500
2023-03-27T01:49:03.456Z,1.7071
2023-03-27T01:50:10.426Z,1.1857
2023-03-27T01:51:17.386Z,1.9929
2023-03-27T01:52:24.407Z,1.9143
2023-03-27T01:53:31.363Z,1.5214
2023-03-27T01:54:38.357Z,2.1714
2023-03-27T01:55:45.332Z,2.0571
2023-03-27T01:56:52.411Z,1.6429
2023-03-27T01:57:59.306Z,2.1714
2023-03-27T01:59:06.307Z,1.3143
2023-03-27T02:00:18.174Z,1.7071
2023-03-27T02:01:25.062Z,1.5133
2023-03-27T02:02:32.049Z,2.7857
2023-03-27T02:03:39.040Z,2.1143
2023-03-27T02:04:46.013Z,2.2000
2023-03-27T02:05:53.020Z,2.0857
2023-03-27T02:06:59.961Z,2.7429
2023-03-27T02:08:06.990Z,1.8429
2023-03-27T02:09:13.956Z,1.3643
2023-03-27T02:10:20.962Z,1.5286
2023-03-27T02:11:27.900Z,1.8214
2023-03-27T02:12:34.911Z,1.8500
2023-03-27T02:13:41.900Z,1.4929
2023-03-27T02:14:48.884Z,1.8500
2023-03-27T02:15:55.856Z,1.8643
2023-03-27T02:17:02.879Z,1.9857
2023-03-27T02:18:09.848Z,1.4857
2023-03-27T02:19:16.842Z,1.4643
2023-03-27T02:20:23.797Z,2.3143
2023-03-27T02:21:30.813Z,2.5929
2023-03-27T02:22:38.150Z,1.7714
2023-03-27T02:23:44.796Z,2.4643
2023-03-27T02:24:51.762Z,1.4429
2023-03-27T02:25:58.758Z,1.6714
2023-03-27T02:27:05.710Z,1.5143
2023-03-27T02:28:12.718Z,1.2929
2023-03-27T02:29:19.708Z,1.5929
2023-03-27T02:30:26.721Z,1.3857
2023-03-27T02:31:35.020Z,1.1429
2023-03-27T02:32:40.738Z,1.7714
2023-03-27T02:33:47.636Z,1.9643
2023-03-27T02:34:54.651Z,1.3357
2023-03-27T02:36:01.678Z,1.0500
2023-03-27T02:37:08.607Z,1.4429
2023-03-27T02:38:15.566Z,1.1429
2023-03-27T02:39:22.569Z,1.0500
2023-03-27T02:40:29.544Z,0.9571
2023-03-27T02:41:36.553Z,1.0143
2023-03-27T02:42:43.532Z,0.7857
2023-03-27T02:43:50.507Z,1.4500
2023-03-27T02:44:57.496Z,1.1714
2023-03-27T02:46:04.527Z,0.8857
2023-03-27T02:47:11.452Z,1.0071
2023-03-27T02:48:18.476Z,1.1500
2023-03-27T02:49:25.429Z,0.8786
2023-03-27T02:50:32.424Z,0.7500
2023-03-27T02:51:39.389Z,0.9286
2023-03-27T02:52:46.415Z,0.4000
2023-03-27T02:53:53.379Z,1.2071
2023-03-27T02:55:00.372Z,1.0071
2023-03-27T02:56:07.341Z,0.4071
2023-03-27T02:57:14.438Z,0.5214
2023-03-27T02:58:21.323Z,0.5000
2023-03-27T02:59:28.338Z,0.6357
2023-03-27T03:00:35.288Z,0.3571
2023-03-27T03:01:42.351Z,0.4786
2023-03-27T03:02:49.346Z,0.5143
2023-03-27T03:03:56.272Z,0.6000
2023-03-27T03:05:03.236Z,0.5286
2023-03-27T03:06:10.223Z,0.2714
2023-03-27T03:07:17.227Z,0.8786
2023-03-27T03:08:24.222Z,1.4714
2023-03-27T03:09:31.183Z,0.7786
2023-03-27T03:10:38.179Z,1.1714
2023-03-27T03:11:45.158Z,0.5286
2023-03-27T03:12:52.152Z,0.3571
2023-03-27T03:13:59.102Z,1.4714
2023-03-27T03:15:06.136Z,0.2643
2023-03-27T03:16:13.116Z,0.7714
2023-03-27T03:17:20.084Z,0.7500
2023-03-27T03:18:27.036Z,0.5786
2023-03-27T03:19:34.047Z,0.4214
2023-03-27T03:20:41.030Z,0.3571
2023-03-27T03:21:48.003Z,0.4500
2023-03-27T03:22:54.965Z,0.4357
2023-03-27T03:24:01.976Z,0.7571
2023-03-27T03:25:08.935Z,0.2143
2023-03-27T03:26:15.927Z,0.4286
2023-03-27T03:27:22.965Z,0.3214
2023-03-27T03:28:29.897Z,0.2714
2023-03-27T03:29:36.909Z,0.3214
2023-03-27T03:30:43.894Z,0.6571
2023-03-27T03:31:50.862Z,0.9643
2023-03-27T03:32:57.910Z,0.3286
2023-03-27T03:34:04.866Z,0.5000
2023-03-27T03:35:11.813Z,0.3357
2023-03-27T03:36:18.822Z,0.3929
2023-03-27T03:37:25.785Z,0.5929
2023-03-27T03:38:38.354Z,0.4571
2023-03-27T03:39:44.563Z,0.7733
2023-03-27T03:40:51.575Z,0.2357
2023-03-27T03:41:58.537Z,1.3000
2023-03-27T03:43:05.529Z,1.2857
2023-03-27T03:44:12.529Z,0.3214
2023-03-27T03:45:19.507Z,0.3571
2023-03-27T03:46:26.525Z,0.5429
2023-03-27T03:47:33.510Z,0.6286
2023-03-27T03:48:40.467Z,0.3857
2023-03-27T03:49:47.458Z,1.1500
2023-03-27T03:50:54.623Z,0.5143
2023-03-27T03:52:04.268Z,0.1357
2023-03-27T03:53:13.192Z,0.1133
2023-03-27T03:54:20.222Z,0.5714
2023-03-27T03:55:27.159Z,0.2643
2023-03-27T03:56:34.254Z,0.2214
2023-03-27T03:57:41.137Z,0.5714
2023-03-27T03:58:48.170Z,0.2643
2023-03-27T03:59:55.119Z,0.2714
2023-03-27T04:01:02.135Z,0.5571
2023-03-27T04:02:09.129Z,0.4571
2023-03-27T04:03:16.242Z,0.4571
2023-03-27T04:04:23.066Z,0.3000
2023-03-27T04:05:30.094Z,0.1643
2023-03-27T04:06:37.131Z,0.1143
2023-03-27T04:07:44.061Z,0.2214
2023-03-27T04:08:51.019Z,0.1214
2023-03-27T04:09:58.013Z,0.7786
2023-03-27T04:11:04.994Z,0.2786
2023-03-27T04:12:11.995Z,0.3429
2023-03-27T04:13:18.981Z,0.5429
2023-03-27T04:14:25.982Z,0.2929
2023-03-27T04:15:32.954Z,0.2143
2023-03-27T04:16:39.938Z,0.5071
2023-03-27T04:17:47.039Z,0.3071
2023-03-27T04:18:53.972Z,0.6000
2023-03-27T04:20:00.895Z,0.4286
2023-03-27T04:21:07.883Z,0.4214
2023-03-27T04:22:14.850Z,0.4571
2023-03-27T04:23:21.854Z,0.1357
2023-03-27T04:24:28.822Z,0.1500
2023-03-27T04:25:35.846Z,0.1571
2023-03-27T04:26:42.830Z,0.3071
2023-03-27T04:27:49.811Z,0.2643
2023-03-27T04:28:56.789Z,0.4571
2023-03-27T04:30:03.783Z,0.2857
2023-03-27T04:31:10.888Z,0.3500
2023-03-27T04:32:17.770Z,0.3714
2023-03-27T04:33:24.789Z,0.6571
2023-03-27T04:34:31.734Z,0.2714
2023-03-27T04:35:38.744Z,0.8071
2023-03-27T04:36:45.720Z,0.5214
2023-03-27T04:37:52.691Z,0.5286
2023-03-27T04:38:59.694Z,0.9214
2023-03-27T04:40:06.644Z,0.9214
2023-03-27T04:41:13.672Z,0.5500
2023-03-27T04:42:20.665Z,0.5714
2023-03-27T04:43:27.655Z,0.6929
2023-03-27T04:44:34.605Z,0.3286
2023-03-27T04:45:41.596Z,0.3643
2023-03-27T04:46:48.627Z,0.5643
2023-03-27T04:47:55.609Z,0.3857
2023-03-27T04:49:02.575Z,0.6929
2023-03-27T04:50:09.564Z,0.6143
2023-03-27T04:51:16.518Z,0.3500
2023-03-27T04:52:23.532Z,0.5071
2023-03-27T04:53:30.554Z,0.4929
2023-03-27T04:54:37.533Z,0.6214
2023-03-27T04:55:44.487Z,0.5643
2023-03-27T04:56:51.500Z,0.4143
2023-03-27T04:57:58.453Z,0.5143
2023-03-27T04:59:05.466Z,0.5500
2023-03-27T05:00:12.472Z,0.9643
2023-03-27T05:01:19.499Z,0.4286
2023-03-27T05:02:26.504Z,0.3786
2023-03-27T05:03:33.447Z,0.6357
2023-03-27T05:04:40.371Z,0.9071
2023-03-27T05:05:47.395Z,0.8286
2023-03-27T05:06:54.362Z,0.5071
2023-03-27T05:08:01.344Z,0.6214
2023-03-27T05:09:08.314Z,1.1429
2023-03-27T05:10:15.320Z,0.6714
2023-03-27T05:11:22.311Z,0.4143
2023-03-27T05:12:29.304Z,0.5429
2023-03-27T05:13:36.276Z,0.7143
2023-03-27T05:14:43.269Z,0.4214
2023-03-27T05:15:50.239Z,0.2857
2023-03-27T05:16:57.244Z,0.4143
2023-03-27T05:18:04.263Z,0.6071
2023-03-27T05:19:11.229Z,0.5714
2023-03-27T05:20:18.192Z,0.7786
2023-03-27T05:21:25.186Z,0.5286
2023-03-27T05:22:32.184Z,0.6357
2023-03-27T05:23:39.188Z,2.2143
2023-03-27T05:24:46.145Z,1.0714
2023-03-27T05:26:00.094Z,1.2786
2023-03-27T05:27:04.908Z,1.1933
2023-03-27T05:28:11.893Z,1.2143
2023-03-27T05:29:18.937Z,1.5357
2023-03-27T05:30:25.916Z,1.8071
2023-03-27T05:31:32.864Z,1.4571
2023-03-27T05:32:39.887Z,1.6714
2023-03-27T05:33:46.825Z,1.9357
2023-03-27T05:34:53.916Z,1.7714
2023-03-27T05:36:00.891Z,1.5286
2023-03-27T05:37:07.895Z,2.4357
2023-03-27T05:38:14.859Z,1.3857
2023-03-27T05:39:21.852Z,1.6643
2023-03-27T05:40:28.824Z,2.6286
2023-03-27T05:41:35.833Z,2.4214
2023-03-27T05:42:42.807Z,1.7929
2023-03-27T05:43:51.113Z,2.3357
2023-03-27T05:44:56.766Z,2.3000
2023-03-27T05:46:03.824Z,2.4714
2023-03-27T05:47:10.761Z,1.7929
2023-03-27T05:48:17.761Z,2.9714
2023-03-27T05:49:24.730Z,2.1214
2023-03-27T05:50:31.733Z,2.3071
2023-03-27T05:51:38.693Z,1.9143
2023-03-27T05:52:50.488Z,2.1267
2023-03-27T05:53:57.488Z,2.3571
2023-03-27T05:55:04.490Z,1.6357
2023-03-27T05:56:11.609Z,2.1071
2023-03-27T05:57:18.544Z,2.4714
2023-03-27T05:58:25.410Z,2.7286
2023-03-27T05:59:32.450Z,2.2071
2023-03-27T06:00:39.403Z,2.9714
2023-03-27T06:01:46.389Z,2.0286
2023-03-27T06:02:53.432Z,2.0357
2023-03-27T06:04:00.519Z,2.7357
2023-03-27T06:05:07.348Z,1.5071
2023-03-27T06:06:14.342Z,1.6929
2023-03-27T06:07:21.300Z,1.6857
2023-03-27T06:08:28.333Z,2.2286
2023-03-27T06:09:35.290Z,2.3643
2023-03-27T06:10:42.296Z,2.8786
2023-03-27T06:11:49.261Z,2.0929
2023-03-27T06:12:56.254Z,2.0571
2023-03-27T06:14:03.234Z,1.8500
2023-03-27T06:15:10.246Z,1.7929
2023-03-27T06:16:17.259Z,4.1357
2023-03-27T06:17:24.261Z,2.9143
2023-03-27T06:18:31.178Z,1.9857
2023-03-27T06:19:38.202Z,3.3500
2023-03-27T06:20:45.181Z,2.8786
2023-03-27T06:21:52.161Z,2.5714
2023-03-27T06:22:59.126Z,3.9429
2023-03-27T06:24:06.142Z,2.3500
2023-03-27T06:25:13.134Z,2.6000
2023-03-27T06:26:20.123Z,1.7500
2023-03-27T06:27:27.103Z,2.5286
2023-03-27T06:28:34.103Z,2.2929
2023-03-27T06:29:41.059Z,2.3357
2023-03-27T06:30:48.065Z,2.6000
2023-03-27T06:31:55.051Z,3.1214
2023-03-27T06:33:02.150Z,2.5429
2023-03-27T06:34:09.022Z,3.4714
2023-03-27T06:35:16.038Z,3.1643
2023-03-27T06:36:23.058Z,2.4357
2023-03-27T06:37:30.149Z,3.3071
2023-03-27T06:38:36.988Z,2.8929
2023-03-27T06:39:43.999Z,2.8857
2023-03-27T06:40:50.972Z,2.7929
2023-03-27T06:41:57.962Z,2.1500
2023-03-27T06:43:04.935Z,2.9000
2023-03-27T06:44:11.952Z,2.3357
2023-03-27T06:45:18.924Z,2.8857
2023-03-27T06:46:35.312Z,2.8357
2023-03-27T06:47:44.737Z,1.8333
2023-03-27T06:48:49.501Z,1.7267
2023-03-27T06:49:56.437Z,2.6429
2023-03-27T06:51:03.562Z,4.1500
2023-03-27T06:52:10.426Z,2.9286
2023-03-27T06:53:26.755Z,3.5857
2023-03-27T06:54:29.168Z,2.2000
2023-03-27T06:55:36.189Z,2.5429
2023-03-27T06:56:43.168Z,3.3286
2023-03-27T06:57:50.161Z,2.1857
2023-03-27T06:58:57.122Z,3.3000
2023-03-27T07:00:04.137Z,3.0857
2023-03-27T07:01:11.116Z,2.0714
2023-03-27T07:02:18.122Z,2.8286
2023-03-27T07:03:25.078Z,2.4786
2023-03-27T07:04:32.076Z,2.2286
2023-03-27T07:05:39.081Z,3.8714
2023-03-27T07:06:46.066Z,2.8500
2023-03-27T07:07:53.024Z,2.8357
2023-03-27T07:09:00.042Z,2.7857
2023-03-27T07:10:06.987Z,2.8214
2023-03-27T07:11:14.163Z,3.5500
2023-03-27T07:12:20.985Z,3.4000
2023-03-27T07:13:27.975Z,2.6857
2023-03-27T07:14:34.942Z,3.3000
2023-03-27T07:15:41.941Z,3.5429
2023-03-27T07:16:48.963Z,5.4429
2023-03-27T07:17:55.939Z,3.4357
2023-03-27T07:19:02.916Z,3.1857
2023-03-27T07:20:10.032Z,3.7643
2023-03-27T07:21:16.871Z,3.3286
2023-03-27T07:22:23.866Z,3.1286
2023-03-27T07:23:30.824Z,3.5214
2023-03-27T07:24:37.838Z,3.1714
2023-03-27T07:25:44.833Z,3.0000
2023-03-27T07:26:51.822Z,3.1714
2023-03-27T07:27:58.793Z,4.0214
2023-03-27T07:29:05.808Z,3.2571
2023-03-27T07:30:12.852Z,2.3071
2023-03-27T07:31:35.011Z,4.4786
2023-03-27T07:32:37.259Z,2.8267
2023-03-27T07:33:43.450Z,4.6400
2023-03-27T07:34:50.263Z,3.1857
2023-03-27T07:35:57.428Z,3.7429
2023-03-27T07:37:04.245Z,3.3714
2023-03-27T07:38:11.248Z,2.6357
2023-03-27T07:39:18.248Z,3.4857
2023-03-27T07:40:33.340Z,3.8929
2023-03-27T07:41:36.994Z,3.5733
2023-03-27T07:42:43.997Z,3.2286
2023-03-27T07:43:50.982Z,4.8571
2023-03-27T07:44:57.992Z,4.9286
2023-03-27T07:46:05.002Z,3.2000
2023-03-27T07:47:11.953Z,5.0500
2023-03-27T07:48:19.121Z,4.8857
2023-03-27T07:49:39.460Z,4.2929
2023-03-27T07:50:37.763Z,4.8733
2023-03-27T07:51:44.723Z,5.5857
2023-03-27T07:52:51.669Z,5.2571
2023-03-27T07:53:58.866Z,5.0500
2023-03-27T07:55:05.673Z,4.5500
2023-03-27T07:56:12.704Z,5.5643
2023-03-27T07:57:19.713Z,4.9286
2023-03-27T07:58:26.893Z,4.2286
2023-03-27T07:59:33.617Z,5.0000
2023-03-27T08:00:40.633Z,5.4500
2023-03-27T08:01:47.622Z,6.7643
2023-03-27T08:02:54.779Z,6.0429
2023-03-27T08:04:01.741Z,5.0143
2023-03-27T08:05:08.647Z,4.7500
2023-03-27T08:06:15.620Z,5.3643
2023-03-27T08:07:22.574Z,5.3929
2023-03-27T08:08:29.605Z,5.1571
2023-03-27T08:09:36.561Z,6.8000
2023-03-27T08:10:43.552Z,6.8214
2023-03-27T08:11:50.513Z,6.4071
2023-03-27T08:12:57.525Z,6.4786
2023-03-27T08:14:04.498Z,5.2000
2023-03-27T08:15:11.517Z,6.9357
2023-03-27T08:16:18.524Z,7.0143
2023-03-27T08:17:25.515Z,6.2929
2023-03-27T08:18:32.458Z,6.2214
2023-03-27T08:19:39.470Z,5.1857
2023-03-27T08:20:46.458Z,5.7429
2023-03-27T08:21:53.463Z,7.9286
2023-03-27T08:23:00.424Z,6.5286
2023-03-27T08:24:07.438Z,5.9643
2023-03-27T08:25:14.395Z,5.9929
2023-03-27T08:26:21.400Z,6.2857
2023-03-27T08:27:28.375Z,8.7929
2023-03-27T08:28:35.393Z,7.0714
2023-03-27T08:29:42.352Z,5.7929
2023-03-27T08:30:49.384Z,6.2857
2023-03-27T08:31:56.342Z,6.3000
2023-03-27T08:33:03.391Z,6.3571
2023-03-27T08:34:10.330Z,5.2786
2023-03-27T08:35:17.374Z,8.5214
2023-03-27T08:36:24.293Z,7.1500
2023-03-27T08:37:31.305Z,7.2214
2023-03-27T08:38:38.282Z,6.9571
2023-03-27T08:39:45.285Z,6.5071
2023-03-27T08:40:52.252Z,6.0500
2023-03-27T08:41:59.270Z,6.1643
2023-03-27T08:43:06.258Z,6.3786
2023-03-27T08:44:13.245Z,7.2286
2023-03-27T08:45:20.208Z,6.7214
2023-03-27T08:46:27.306Z,8.4429
2023-03-27T08:47:34.253Z,6.8929
2023-03-27T08:48:41.266Z,7.7286
2023-03-27T08:49:48.189Z,8.1286
2023-03-27T08:50:55.174Z,7.0429
2023-03-27T08:52:02.145Z,6.2500
2023-03-27T08:53:09.160Z,8.7000
2023-03-27T08:54:16.139Z,8.4429
2023-03-27T08:55:23.143Z,8.1571
2023-03-27T08:56:30.137Z,6.7857
2023-03-27T08:57:37.114Z,7.4643
2023-03-27T08:58:44.092Z,8.8143
2023-03-27T08:59:51.112Z,8.2857
2023-03-27T09:00:58.072Z,10.2857
2023-03-27T09:02:05.184Z,8.3643
2023-03-27T09:03:12.205Z,8.7429
2023-03-27T09:04:19.074Z,8.1000
2023-03-27T09:05:26.048Z,7.0643
2023-03-27T09:06:33.068Z,8.0214
2023-03-27T09:07:40.037Z,6.3000
2023-03-27T09:08:47.055Z,8.4286
2023-03-27T09:09:54.005Z,8.1500
2023-03-27T09:11:01.032Z,6.4286
2023-03-27T09:12:08.006Z,7.6714
2023-03-27T09:13:14.999Z,8.3571
2023-03-27T09:14:21.965Z,6.9214
2023-03-27T09:15:29.019Z,7.3429
2023-03-27T09:16:36.014Z,8.2000
2023-03-27T09:17:42.986Z,6.1357
2023-03-27T09:18:49.932Z,5.0500
2023-03-27T09:19:56.975Z,6.0857
2023-03-27T09:21:03.931Z,6.8643
2023-03-27T09:22:10.939Z,7.1500
2023-03-27T09:23:19.782Z,6.4286
2023-03-27T09:24:29.693Z,7.4667
2023-03-27T09:25:36.676Z,7.3857
2023-03-27T09:26:43.694Z,7.5643
2023-03-27T09:27:50.663Z,6.4286
2023-03-27T09:28:57.665Z,6.1786
2023-03-27T09:30:04.646Z,9.1143
2023-03-27T09:31:11.713Z,6.2071
2023-03-27T09:32:18.656Z,6.8429
2023-03-27T09:33:25.623Z,6.8000
2023-03-27T09:34:32.608Z,7.1071
2023-03-27T09:35:39.662Z,9.3643
2023-03-27T09:36:46.594Z,8.6857
2023-03-27T09:37:53.613Z,8.6571
2023-03-27T09:39:00.661Z,7.3857
2023-03-27T09:40:07.646Z,8.4000
2023-03-27T09:41:14.644Z,8.3714
2023-03-27T09:42:21.642Z,6.1214
2023-03-27T09:43:28.605Z,7.4143
2023-03-27T09:44:35.629Z,8.0214
2023-03-27T09:45:42.586Z,8.8929
2023-03-27T09:46:49.652Z,7.2286
2023-03-27T09:47:56.636Z,7.4786
2023-03-27T09:49:03.564Z,9.1357
2023-03-27T09:50:10.531Z,8.1929
2023-03-27T09:51:17.560Z,9.6500
2023-03-27T09:52:24.521Z,7.4214
2023-03-27T09:53:31.539Z,8.9857
2023-03-27T09:54:38.514Z,7.0429
2023-03-27T09:55:45.514Z,7.5643
2023-03-27T09:56:52.589Z,7.6143
2023-03-27T09:57:59.498Z,6.4429
2023-03-27T09:59:06.479Z,5.6286
2023-03-27T10:00:13.477Z,7.6500
2023-03-27T10:01:20.520Z,8.9929
2023-03-27T10:02:27.455Z,9.3429
2023-03-27T10:03:34.448Z,9.1143
2023-03-27T10:04:41.455Z,8.2429
2023-03-27T10:05:48.401Z,9.7143
2023-03-27T10:06:55.399Z,9.4357
2023-03-27T10:08:02.391Z,7.3071
2023-03-27T10:09:09.385Z,8.6071
2023-03-27T10:10:16.391Z,9.3286
2023-03-27T10:11:23.379Z,7.5714
2023-03-27T10:12:30.333Z,8.3571
2023-03-27T10:13:37.351Z,7.0500
2023-03-27T10:14:44.309Z,10.6786
2023-03-27T10:15:51.340Z,6.9286
2023-03-27T10:16:58.354Z,8.6000
2023-03-27T10:18:05.325Z,9.6071
2023-03-27T10:19:12.286Z,10.8929
2023-03-27T10:20:19.335Z,9.0643
2023-03-27T10:21:26.277Z,9.0857
2023-03-27T10:22:33.277Z,8.6786
2023-03-27T10:23:40.274Z,7.0929
2023-03-27T10:24:47.252Z,7.0929
2023-03-27T10:25:54.242Z,10.4357
2023-03-27T10:27:01.225Z,8.3500
2023-03-27T10:28:08.188Z,8.4286
2023-03-27T10:29:15.206Z,7.7143
2023-03-27T10:30:22.222Z,7.4714
2023-03-27T10:31:29.213Z,6.7571
2023-03-27T10:32:36.162Z,7.6500
2023-03-27T10:33:43.159Z,7.4000
2023-03-27T10:34:50.126Z,6.0286
2023-03-27T10:35:57.207Z,7.3286
2023-03-27T10:37:04.121Z,8.7643
2023-03-27T10:38:11.112Z,8.3929
2023-03-27T10:39:18.094Z,10.7857
2023-03-27T10:40:25.110Z,8.2500
2023-03-27T10:41:32.054Z,7.9786
2023-03-27T10:42:39.060Z,6.1429
2023-03-27T10:43:46.034Z,8.3214
2023-03-27T10:44:53.057Z,9.0929
2023-03-27T10:46:00.032Z,7.0643
2023-03-27T10:47:07.052Z,6.5214
2023-03-27T10:48:13.981Z,7.6071
2023-03-27T10:49:20.993Z,9.1071
2023-03-27T10:50:27.984Z,7.7357
2023-03-27T10:51:45.592Z,8.2929
2023-03-27T10:52:46.751Z,5.2867
2023-03-27T10:53:53.837Z,6.9214
2023-03-27T10:55:00.745Z,8.6714
2023-03-27T10:56:07.742Z,6.9286
2023-03-27T10:57:14.734Z,6.3071
2023-03-27T10:58:21.713Z,7.0786
2023-03-27T10:59:41.091Z,9.1429
2023-03-27T11:00:40.499Z,7.0067
2023-03-27T11:01:47.497Z,7.6429
2023-03-27T11:02:54.493Z,5.9857
2023-03-27T11:04:01.515Z,6.9000
2023-03-27T11:05:08.462Z,6.8143
2023-03-27T11:06:15.429Z,7.4286
2023-03-27T11:07:22.459Z,7.6929
2023-03-27T11:08:29.417Z,7.7786
2023-03-27T11:09:36.439Z,7.2643
2023-03-27T11:10:43.369Z,6.5429
2023-03-27T11:11:50.397Z,7.1786
2023-03-27T11:12:57.384Z,9.0071
2023-03-27T11:14:04.409Z,7.5643
2023-03-27T11:15:11.357Z,8.2429
2023-03-27T11:16:18.418Z,6.8214
2023-03-27T11:17:25.453Z,7.5500
2023-03-27T11:18:37.161Z,6.4000
2023-03-27T11:19:44.089Z,6.3143
2023-03-27T11:20:51.103Z,11.7286
2023-03-27T11:21:58.054Z,9.1357
2023-03-27T11:23:05.085Z,6.6214
2023-03-27T11:24:12.071Z,7.0286
2023-03-27T11:25:19.050Z,6.8857
2023-03-27T11:26:26.056Z,7.7786
2023-03-27T11:27:33.052Z,7.5929
2023-03-27T11:28:40.028Z,7.0643
2023-03-27T11:29:47.027Z,6.6214
2023-03-27T11:30:54.033Z,6.5429
2023-03-27T11:32:01.259Z,6.5357
2023-03-27T11:33:07.999Z,8.3071
2023-03-27T11:34:14.983Z,7.8786
2023-03-27T11:35:26.709Z,8.3400
2023-03-27T11:36:33.738Z,7.6571
2023-03-27T11:37:41.072Z,9.5357
2023-03-27T11:38:47.722Z,8.8000
2023-03-27T11:39:54.685Z,6.4214
2023-03-27T11:41:01.679Z,9.1071
2023-03-27T11:42:08.646Z,7.5929
2023-03-27T11:43:15.694Z,7.8571
2023-03-27T11:44:22.642Z,7.7143
2023-03-27T11:45:29.641Z,8.4429
2023-03-27T11:46:36.668Z,8.9643
2023-03-27T11:47:43.643Z,6.6357
2023-03-27T11:48:50.605Z,7.5429
2023-03-27T11:49:57.595Z,6.4357
2023-03-27T11:51:04.602Z,7.3214
2023-03-27T11:52:11.583Z,6.6286
2023-03-27T11:53:18.532Z,8.1214
2023-03-27T11:54:25.561Z,7.2000
2023-03-27T11:55:32.722Z,7.2143
2023-03-27T11:56:39.573Z,7.1214
2023-03-27T11:57:46.489Z,8.3714
2023-03-27T11:58:53.522Z,7.5571
2023-03-27T12:00:00.509Z,9.0643
2023-03-27T12:01:07.482Z,8.4357
2023-03-27T12:02:14.466Z,7.6071
2023-03-27T12:03:21.506Z,6.0857
2023-03-27T12:04:28.420Z,6.6071
2023-03-27T12:05:35.455Z,7.0429
2023-03-27T12:06:42.409Z,5.7357
2023-03-27T12:07:49.416Z,6.3143
2023-03-27T12:08:56.391Z,5.3929
2023-03-27T12:10:03.408Z,4.1286
2023-03-27T12:11:10.370Z,4.4714
2023-03-27T12:12:17.404Z,6.1000
2023-03-27T12:13:34.887Z,6.5500
2023-03-27T12:14:40.693Z,6.1667
2023-03-27T12:15:47.902Z,5.0867
2023-03-27T12:16:54.912Z,6.5357
2023-03-27T12:18:01.997Z,8.8714
2023-03-27T12:19:21.306Z,5.4000
2023-03-27T12:20:20.628Z,6.7733
2023-03-27T12:21:27.648Z,4.3643
2023-03-27T12:22:34.651Z,4.5071
2023-03-27T12:23:41.633Z,5.1071
2023-03-27T12:24:59.029Z,4.1286
2023-03-27T12:26:00.384Z,4.2600
2023-03-27T12:27:07.355Z,5.8571
2023-03-27T12:28:23.051Z,4.2143
2023-03-27T12:29:26.135Z,3.8800
2023-03-27T12:30:33.109Z,2.9500
2023-03-27T12:31:40.111Z,3.7929
2023-03-27T12:32:47.146Z,4.8357
2023-03-27T12:33:54.066Z,3.8571
2023-03-27T12:35:01.093Z,4.7786
2023-03-27T12:36:08.056Z,5.0143
2023-03-27T12:37:15.024Z,5.6857
2023-03-27T12:38:21.996Z,3.1929
2023-03-27T12:39:29.013Z,3.5286
2023-03-27T12:40:35.982Z,4.8143
2023-03-27T12:41:42.993Z,4.2643
2023-03-27T12:42:49.984Z,3.4571
2023-03-27T12:43:56.960Z,4.1786
2023-03-27T12:45:03.927Z,4.6214
2023-03-27T12:46:10.968Z,3.3357
2023-03-27T12:47:18.114Z,3.5714
2023-03-27T12:48:24.911Z,1.5786
2023-03-27T12:49:44.416Z,2.8500
2023-03-27T12:50:43.673Z,2.7667
2023-03-27T12:51:50.638Z,3.3500
2023-03-27T12:52:57.649Z,2.7000
2023-03-27T12:54:04.602Z,3.3214
2023-03-27T12:55:11.601Z,4.8786
2023-03-27T12:56:18.603Z,3.7000
2023-03-27T12:57:25.723Z,4.9357
2023-03-27T12:58:32.696Z,3.2786
2023-03-27T12:59:39.551Z,2.3429
2023-03-27T13:00:46.543Z,2.2929
2023-03-27T13:01:53.541Z,2.3786
2023-03-27T13:03:00.684Z,3.6786
2023-03-27T13:04:07.575Z,3.2000
2023-03-27T13:05:26.357Z,2.1929
2023-03-27T13:06:26.256Z,3.0400
2023-03-27T13:07:33.263Z,3.0429
2023-03-27T13:08:40.256Z,3.9143
2023-03-27T13:09:47.248Z,3.2500
2023-03-27T13:10:54.281Z,3.6786
2023-03-27T13:12:01.215Z,3.1357
2023-03-27T13:13:08.176Z,4.3143
2023-03-27T13:14:15.215Z,3.5857
2023-03-27T13:15:22.232Z,3.2429
2023-03-27T13:16:29.184Z,4.3429
2023-03-27T13:17:36.161Z,2.6643
2023-03-27T13:18:43.155Z,2.6071
2023-03-27T13:19:50.117Z,3.6786
2023-03-27T13:20:57.132Z,2.9857
2023-03-27T13:22:04.098Z,4.2357
2023-03-27T13:23:11.086Z,3.9000
2023-03-27T13:24:18.056Z,2.6286
2023-03-27T13:25:25.073Z,3.7714
2023-03-27T13:26:32.050Z,3.5000
2023-03-27T13:27:39.061Z,4.2214
2023-03-27T13:28:46.003Z,3.5714
2023-03-27T13:29:53.012Z,3.0643
2023-03-27T13:31:00.050Z,3.7429
2023-03-27T13:32:07.007Z,2.6000
2023-03-27T13:33:14.039Z,2.0071
2023-03-27T13:34:21.023Z,2.0000
2023-03-27T13:35:27.960Z,2.6500
2023-03-27T13:36:34.958Z,2.7143
2023-03-27T13:37:41.930Z,3.9500
2023-03-27T13:38:48.923Z,3.1357
2023-03-27T13:39:55.871Z,3.2571
2023-03-27T13:41:02.870Z,2.8786
2023-03-27T13:42:09.863Z,3.3500
2023-03-27T13:43:16.871Z,3.6500
2023-03-27T13:44:23.945Z,3.7786
2023-03-27T13:45:30.905Z,3.3000
2023-03-27T13:46:37.886Z,3.6071
2023-03-27T13:47:44.931Z,3.0857
2023-03-27T13:48:51.854Z,2.7429
2023-03-27T13:49:58.848Z,3.5000
2023-03-27T13:51:05.807Z,3.2286
2023-03-27T13:52:12.823Z,4.3000
2023-03-27T13:53:21.743Z,3.5357
2023-03-27T13:54:31.590Z,3.3800
2023-03-27T13:55:38.538Z,4.1071
2023-03-27T13:56:45.613Z,3.6214
2023-03-27T13:57:52.536Z,2.4500